Terminal Aerodrome Forecast
Issued by NWS

Home | Current Version | Previous Version | Text Only | Print | Product List | Glossary On
Versions: 1 2 3 4 5 6 7 8 9 10 11 12 13 14 15 16 17 18 19 20
000
FTUS41 KCAR 251121
TAFBHB
TAF
KBHB 251121Z 2512/2612 24008KT P6SM SCT180 BKN250
     FM260000 21009KT P6SM OVC020
     FM260300 21009KT 3SM -SHRA BR OVC011
      AMD LTD TO CLD VIS AND WIND=

USA.gov is the U.S. government's official web portal to all federal, state and local government web resources and services.